createdAt,value
2023-04-19T00:02:03.645Z,98742.09
2023-04-19T00:04:34.032Z,98744.71
2023-04-19T00:07:03.612Z,98742.70
2023-04-19T00:09:31.795Z,98740.66
2023-04-19T00:11:59.907Z,98740.86
2023-04-19T00:14:28.375Z,98734.52
2023-04-19T00:16:56.479Z,98730.90
2023-04-19T00:19:24.723Z,98731.94
2023-04-19T00:21:52.820Z,98727.08
2023-04-19T00:24:20.990Z,98728.94
2023-04-19T00:26:49.387Z,98728.21
2023-04-19T00:29:18.191Z,98725.25
2023-04-19T00:31:46.359Z,98726.10
2023-04-19T00:34:14.920Z,98727.98
2023-04-19T00:36:43.538Z,98724.33
2023-04-19T00:39:11.731Z,98722.42
2023-04-19T00:41:40.051Z,98719.30
2023-04-19T00:44:08.249Z,98718.94
2023-04-19T00:46:37.746Z,98717.73
2023-04-19T00:49:06.549Z,98717.23
2023-04-19T00:51:34.699Z,98718.80
2023-04-19T00:54:03.307Z,98712.59
2023-04-19T00:56:31.478Z,98710.89
2023-04-19T00:58:59.772Z,98710.40
2023-04-19T01:01:28.928Z,98705.06
2023-04-19T01:03:57.012Z,98702.83
2023-04-19T01:06:27.965Z,98700.97
2023-04-19T01:08:56.804Z,98698.55
2023-04-19T01:11:25.111Z,98698.58
2023-04-19T01:13:53.385Z,98695.14
2023-04-19T01:16:21.715Z,98691.02
2023-04-19T01:18:51.952Z,98687.05
2023-04-19T01:21:22.762Z,98688.10
2023-04-19T01:23:50.857Z,98685.71
2023-04-19T01:26:19.218Z,98682.60
2023-04-19T01:28:47.304Z,98685.55
2023-04-19T01:31:15.426Z,98682.43
2023-04-19T01:33:43.560Z,98681.09
2023-04-19T01:36:11.942Z,98677.97
2023-04-19T01:38:42.387Z,98674.03
2023-04-19T01:41:11.079Z,98672.67
2023-04-19T01:43:39.157Z,98664.94
2023-04-19T01:46:07.336Z,98663.91
2023-04-19T01:48:35.828Z,98660.83
2023-04-19T01:51:04.148Z,98658.95
2023-04-19T01:53:32.317Z,98658.09
2023-04-19T01:56:00.472Z,98656.55
2023-04-19T01:58:28.554Z,98654.31
2023-04-19T02:00:56.680Z,98652.63
2023-04-19T02:03:25.299Z,98655.23
2023-04-19T02:05:53.617Z,98654.17
2023-04-19T02:08:23.554Z,98654.86
2023-04-19T02:10:51.838Z,98650.70
2023-04-19T02:13:20.861Z,98647.41
2023-04-19T02:15:49.355Z,98648.41
2023-04-19T02:18:18.460Z,98649.27
2023-04-19T02:20:46.740Z,98650.46
2023-04-19T02:23:15.214Z,98651.14
2023-04-19T02:25:43.495Z,98648.37
2023-04-19T02:28:11.608Z,98648.18
2023-04-19T02:30:39.749Z,98646.96
2023-04-19T02:33:10.014Z,98639.17
2023-04-19T02:35:38.726Z,98641.94
2023-04-19T02:38:07.383Z,98637.76
2023-04-19T02:40:35.666Z,98634.64
2023-04-19T02:43:04.492Z,98633.41
2023-04-19T02:45:32.699Z,98636.66
2023-04-19T02:48:01.224Z,98630.94
2023-04-19T02:50:29.542Z,98633.71
2023-04-19T02:52:58.039Z,98628.87
2023-04-19T02:55:26.507Z,98633.20
2023-04-19T02:58:02.396Z,98631.80
2023-04-19T03:00:31.487Z,98638.05
2023-04-19T03:03:05.722Z,98639.13
2023-04-19T03:05:34.155Z,98637.57
2023-04-19T03:08:02.618Z,98633.09
2023-04-19T03:10:30.622Z,98625.65
2023-04-19T03:12:58.786Z,98625.66
2023-04-19T03:15:27.208Z,98621.34
2023-04-19T03:17:55.606Z,98618.75
2023-04-19T03:20:23.848Z,98616.33
2023-04-19T03:22:52.234Z,98614.56
2023-04-19T03:25:21.042Z,98613.87
2023-04-19T03:27:54.592Z,98613.69
2023-04-19T03:30:32.526Z,98613.17
2023-04-19T03:33:01.078Z,98615.05
2023-04-19T03:35:32.252Z,98612.80
2023-04-19T03:38:03.546Z,98608.48
2023-04-19T03:40:37.520Z,98602.48
2023-04-19T03:43:06.604Z,98608.33
2023-04-19T03:45:36.153Z,98609.38
2023-04-19T03:48:04.641Z,98611.77
2023-04-19T03:50:32.825Z,98607.59
2023-04-19T03:53:01.414Z,98607.05
2023-04-19T03:55:30.111Z,98606.84
2023-04-19T03:57:58.707Z,98609.21
2023-04-19T04:00:36.962Z,98610.73
2023-04-19T04:03:05.290Z,98610.55
2023-04-19T04:05:35.147Z,98609.65
2023-04-19T04:08:03.819Z,98608.91
2023-04-19T04:10:33.340Z,98609.39
2023-04-19T04:13:03.594Z,98607.14
2023-04-19T04:15:42.717Z,98604.35
2023-04-19T04:18:13.065Z,98604.50
2023-04-19T04:20:41.416Z,98605.50
2023-04-19T04:23:11.369Z,98605.65
2023-04-19T04:25:42.973Z,98607.33
2023-04-19T04:28:13.915Z,98613.69
2023-04-19T04:30:43.250Z,98614.16
2023-04-19T04:33:12.846Z,98613.46
2023-04-19T04:35:48.167Z,98609.45
2023-04-19T04:38:24.944Z,98612.70
2023-04-19T04:40:54.801Z,98610.59
2023-04-19T04:43:24.093Z,98611.24
2023-04-19T04:45:55.817Z,98612.92
2023-04-19T04:48:24.666Z,98609.11
2023-04-19T04:50:52.727Z,98608.92
2023-04-19T04:53:21.183Z,98608.90
2023-04-19T04:55:51.510Z,98608.53
2023-04-19T04:58:20.558Z,98601.70
2023-04-19T05:00:59.628Z,98606.09
2023-04-19T05:03:28.928Z,98602.36
2023-04-19T05:05:59.322Z,98601.05
2023-04-19T05:08:28.030Z,98600.08
2023-04-19T05:11:00.012Z,98598.95
2023-04-19T05:13:31.661Z,98602.33
2023-04-19T05:16:00.529Z,98602.27
2023-04-19T05:18:29.331Z,98605.00
2023-04-19T05:20:58.269Z,98604.44
2023-04-19T05:29:46.261Z,98597.63
2023-04-19T05:32:23.610Z,98592.05
2023-04-19T05:34:58.928Z,98593.54
2023-04-19T05:37:27.146Z,98593.30
2023-04-19T05:39:55.640Z,98594.66
2023-04-19T05:42:23.821Z,98591.83
2023-04-19T05:44:51.751Z,98595.41
2023-04-19T05:47:21.533Z,98595.34
2023-04-19T05:50:12.330Z,98597.71
2023-04-19T05:52:46.344Z,98599.03
2023-04-19T05:55:15.177Z,98599.71
2023-04-19T05:57:45.365Z,98599.33
2023-04-19T06:00:14.463Z,98595.48
2023-04-19T06:10:20.429Z,98589.14
2023-04-19T06:12:49.323Z,98587.13
2023-04-19T06:15:17.813Z,98588.67
2023-04-19T06:17:46.676Z,98593.01
2023-04-19T06:20:15.193Z,98599.23
2023-04-19T06:22:45.198Z,98600.25
2023-04-19T06:25:13.317Z,98605.65
2023-04-19T06:27:41.611Z,98602.58
2023-04-19T06:30:09.880Z,98607.05
2023-04-19T06:32:38.180Z,98605.30
2023-04-19T06:35:07.034Z,98607.45
2023-04-19T06:37:35.392Z,98603.13
2023-04-19T06:40:07.002Z,98605.84
2023-04-19T06:42:38.540Z,98603.85
2023-04-19T06:45:08.599Z,98603.04
2023-04-19T06:47:37.358Z,98605.56
2023-04-19T06:50:06.506Z,98604.64
2023-04-19T06:52:35.061Z,98605.26
2023-04-19T06:55:03.214Z,98608.85
2023-04-19T06:57:31.743Z,98609.13
2023-04-19T07:00:00.170Z,98611.84
2023-04-19T07:02:28.569Z,98611.61
2023-04-19T07:07:45.198Z,98605.84
2023-04-19T07:10:14.037Z,98606.86
2023-04-19T07:12:42.509Z,98605.29
2023-04-19T07:15:11.485Z,98605.27
2023-04-19T07:17:40.532Z,98608.59
2023-04-19T07:20:09.536Z,98610.84
2023-04-19T07:22:37.937Z,98610.14
2023-04-19T07:25:06.888Z,98614.27
2023-04-19T07:27:35.264Z,98614.81
2023-04-19T07:30:03.599Z,98610.85
2023-04-19T07:32:32.269Z,98610.64
2023-04-19T07:35:01.224Z,98613.38
2023-04-19T07:37:30.532Z,98612.27
2023-04-19T07:39:58.857Z,98618.94
2023-04-19T07:42:27.028Z,98617.77
2023-04-19T07:44:55.827Z,98621.20
2023-04-19T07:47:23.900Z,98623.16
2023-04-19T07:49:53.544Z,98620.00
2023-04-19T07:52:21.470Z,98618.79
2023-04-19T07:54:49.867Z,98619.63
2023-04-19T07:57:17.961Z,98619.83
2023-04-19T08:07:26.278Z,98612.77
2023-04-19T08:09:54.649Z,98612.44
2023-04-19T08:12:36.386Z,98613.57
2023-04-19T08:15:25.602Z,98612.12
2023-04-19T08:17:56.012Z,98613.60
2023-04-19T08:20:23.995Z,98611.17
2023-04-19T08:22:52.879Z,98608.48
2023-04-19T08:25:21.463Z,98609.63
2023-04-19T08:27:49.786Z,98608.05
2023-04-19T08:30:17.731Z,98609.37
2023-04-19T08:32:46.234Z,98611.29
2023-04-19T08:35:14.915Z,98609.52
2023-04-19T08:37:43.221Z,98613.27
2023-04-19T08:40:11.597Z,98612.56
2023-04-19T08:42:40.467Z,98612.82
2023-04-19T08:45:26.973Z,98616.30
2023-04-19T08:48:01.308Z,98609.38
2023-04-19T08:50:38.415Z,98615.17
2023-04-19T08:53:23.855Z,98612.86
2023-04-19T08:58:44.551Z,98618.70
2023-04-19T09:11:39.241Z,98621.15
2023-04-19T09:14:10.673Z,98624.36
2023-04-19T09:16:39.660Z,98622.45
2023-04-19T09:19:22.144Z,98623.09
2023-04-19T09:21:54.199Z,98627.34
2023-04-19T09:27:12.488Z,98633.35
2023-04-19T09:29:40.819Z,98632.67
2023-04-19T09:32:09.047Z,98633.40
2023-04-19T09:34:36.992Z,98632.16
2023-04-19T09:37:20.851Z,98632.55
2023-04-19T09:40:03.306Z,98632.63
2023-04-19T09:43:04.333Z,98632.25
2023-04-19T09:45:44.421Z,98630.21
2023-04-19T09:48:13.533Z,98629.77
2023-04-19T09:51:00.945Z,98628.71
2023-04-19T09:53:34.738Z,98629.84
2023-04-19T09:56:06.131Z,98636.75
2023-04-19T09:58:49.026Z,98633.52
2023-04-19T10:01:19.449Z,98628.55
2023-04-19T10:03:49.457Z,98630.64
2023-04-19T10:08:50.280Z,98633.30
2023-04-19T10:11:20.215Z,98628.71
2023-04-19T10:13:49.007Z,98630.86
2023-04-19T10:16:20.084Z,98629.66
2023-04-19T10:18:50.171Z,98627.79
2023-04-19T10:21:18.459Z,98630.45
2023-04-19T10:23:46.738Z,98628.37
2023-04-19T10:26:14.951Z,98625.95
2023-04-19T10:28:43.270Z,98626.35
2023-04-19T10:31:12.961Z,98629.08
2023-04-19T10:33:41.384Z,98630.86
2023-04-19T10:36:11.241Z,98631.30
2023-04-19T10:38:41.577Z,98634.33
2023-04-19T10:41:16.778Z,98633.76
2023-04-19T10:44:08.341Z,98632.62
2023-04-19T10:46:38.064Z,98634.39
2023-04-19T10:49:06.324Z,98632.91
2023-04-19T10:51:39.435Z,98637.71
2023-04-19T10:54:32.798Z,98636.95
2023-04-19T10:57:06.098Z,98637.96
2023-04-19T10:59:38.076Z,98640.80
2023-04-19T11:02:29.128Z,98636.08
2023-04-19T11:04:59.043Z,98636.97
2023-04-19T11:07:27.470Z,98636.40
2023-04-19T11:09:55.963Z,98635.27
2023-04-19T11:12:25.099Z,98635.27
2023-04-19T11:14:54.935Z,98638.88
2023-04-19T11:17:31.844Z,98637.52
2023-04-19T11:20:00.883Z,98637.28
2023-04-19T11:22:36.024Z,98635.34
2023-04-19T11:25:18.125Z,98633.33
2023-04-19T11:27:50.967Z,98632.63
2023-04-19T11:30:22.328Z,98633.55
2023-04-19T11:32:52.870Z,98630.97
2023-04-19T11:35:22.704Z,98630.93
2023-04-19T11:37:51.015Z,98632.77
2023-04-19T11:40:20.290Z,98633.73
2023-04-19T11:42:54.596Z,98631.54
2023-04-19T11:45:32.216Z,98634.03
2023-04-19T11:48:04.404Z,98628.17
2023-04-19T11:50:42.180Z,98626.44
2023-04-19T11:53:18.039Z,98622.76
2023-04-19T11:55:47.242Z,98625.35
2023-04-19T11:58:29.672Z,98624.95
2023-04-19T12:01:04.166Z,98620.38
2023-04-19T12:03:33.696Z,98621.80
2023-04-19T12:06:09.108Z,98619.00
2023-04-19T12:08:39.009Z,98622.17
2023-04-19T12:11:07.178Z,98619.98
2023-04-19T12:13:36.502Z,98618.11
2023-04-19T12:16:05.321Z,98616.70
2023-04-19T12:18:44.738Z,98618.33
2023-04-19T12:21:27.943Z,98617.63
2023-04-19T12:24:00.843Z,98623.63
2023-04-19T12:26:29.479Z,98626.86
2023-04-19T12:28:58.642Z,98620.42
2023-04-19T12:31:27.372Z,98621.17
2023-04-19T12:33:55.785Z,98625.41
2023-04-19T12:36:25.075Z,98622.78
2023-04-19T12:38:53.360Z,98627.52
2023-04-19T12:41:21.597Z,98624.55
2023-04-19T12:43:49.738Z,98625.21
2023-04-19T12:46:17.765Z,98623.70
2023-04-19T12:48:46.229Z,98618.95
2023-04-19T12:51:14.436Z,98618.45
2023-04-19T12:53:42.627Z,98618.36
2023-04-19T12:56:12.461Z,98616.31
2023-04-19T12:58:40.571Z,98618.66
2023-04-19T13:01:08.907Z,98618.20
2023-04-19T13:03:37.905Z,98615.88
2023-04-19T13:06:06.656Z,98619.44
2023-04-19T13:08:44.617Z,98617.71
2023-04-19T13:11:15.886Z,98622.50
2023-04-19T13:13:44.393Z,98620.25
2023-04-19T13:16:12.695Z,98621.20
2023-04-19T13:18:41.243Z,98618.38
2023-04-19T13:21:09.749Z,98621.98
2023-04-19T13:23:37.807Z,98618.70
2023-04-19T13:26:06.432Z,98619.36
2023-04-19T13:28:36.023Z,98619.40
2023-04-19T13:31:04.999Z,98620.98
2023-04-19T13:33:33.171Z,98621.31
2023-04-19T13:36:01.534Z,98626.82
2023-04-19T13:38:29.857Z,98627.23
2023-04-19T13:40:58.076Z,98628.33
2023-04-19T13:43:26.253Z,98628.16
2023-04-19T13:45:54.559Z,98627.59
2023-04-19T13:48:23.262Z,98631.05
2023-04-19T13:50:52.688Z,98629.61
2023-04-19T13:53:21.040Z,98630.92
2023-04-19T13:55:49.207Z,98632.44
2023-04-19T13:58:17.362Z,98631.05
2023-04-19T14:00:45.627Z,98626.67
2023-04-19T14:03:14.566Z,98628.69
2023-04-19T14:05:43.730Z,98628.77
2023-04-19T14:08:12.076Z,98623.52
2023-04-19T14:10:41.574Z,98621.61
2023-04-19T14:13:09.704Z,98619.71
2023-04-19T14:15:37.902Z,98623.93
2023-04-19T14:18:06.361Z,98621.41
2023-04-19T14:20:34.610Z,98621.16
2023-04-19T14:23:02.588Z,98624.23
2023-04-19T14:25:31.024Z,98623.03
2023-04-19T14:27:58.968Z,98621.31
2023-04-19T14:30:27.655Z,98618.48
2023-04-19T14:32:56.619Z,98621.46
2023-04-19T14:35:24.707Z,98620.50
2023-04-19T14:37:52.717Z,98622.41
2023-04-19T14:40:21.008Z,98622.48
2023-04-19T14:45:45.537Z,98627.70
2023-04-19T14:48:13.903Z,98630.66
2023-04-19T14:50:49.012Z,98626.52
2023-04-19T14:53:27.245Z,98628.06
2023-04-19T14:55:58.458Z,98627.81
2023-04-19T14:58:26.545Z,98627.28
2023-04-19T15:00:56.643Z,98624.92
2023-04-19T15:03:25.777Z,98624.72
2023-04-19T15:05:55.153Z,98626.85
2023-04-19T15:08:30.137Z,98625.80
2023-04-19T15:10:59.124Z,98623.68
2023-04-19T15:13:27.512Z,98628.11
2023-04-19T15:15:56.047Z,98633.98
2023-04-19T15:18:24.198Z,98642.59
2023-04-19T15:20:52.650Z,98643.23
2023-04-19T15:23:23.394Z,98643.58
2023-04-19T15:25:52.107Z,98643.23
2023-04-19T15:28:20.790Z,98641.80
2023-04-19T15:31:03.866Z,98639.09
2023-04-19T15:33:32.451Z,98641.08
2023-04-19T15:36:01.401Z,98639.58
2023-04-19T15:38:30.657Z,98643.77
2023-04-19T15:41:03.524Z,98641.71
2023-04-19T15:43:31.802Z,98640.86
2023-04-19T15:46:00.398Z,98639.15
2023-04-19T15:48:29.695Z,98637.61
2023-04-19T15:50:58.100Z,98638.55
2023-04-19T15:53:26.254Z,98635.61
2023-04-19T15:55:55.920Z,98635.27
2023-04-19T15:58:24.967Z,98635.67
2023-04-19T16:00:53.071Z,98637.47
2023-04-19T16:03:21.414Z,98640.52
2023-04-19T16:05:52.518Z,98642.67
2023-04-19T16:08:20.769Z,98641.36
2023-04-19T16:10:49.233Z,98638.48
2023-04-19T16:13:24.660Z,98635.06
2023-04-19T16:15:54.107Z,98634.42
2023-04-19T16:18:23.157Z,98632.50
2023-04-19T16:20:51.436Z,98633.90
2023-04-19T16:23:20.258Z,98637.03
2023-04-19T16:25:48.261Z,98635.61
2023-04-19T16:28:16.591Z,98637.35
2023-04-19T16:30:46.322Z,98641.41
2023-04-19T16:33:15.709Z,98639.25
2023-04-19T16:35:44.788Z,98639.71
2023-04-19T16:38:12.984Z,98643.12
2023-04-19T16:40:41.858Z,98647.05
2023-04-19T16:43:09.889Z,98650.22
2023-04-19T16:45:37.880Z,98649.95
2023-04-19T16:48:06.087Z,98651.91
2023-04-19T16:50:34.706Z,98654.24
2023-04-19T16:53:02.822Z,98654.29
2023-04-19T16:55:31.330Z,98656.23
2023-04-19T16:57:59.471Z,98658.19
2023-04-19T17:00:28.471Z,98658.05
2023-04-19T17:02:56.957Z,98662.30
2023-04-19T17:05:25.358Z,98659.73
2023-04-19T17:07:55.381Z,98660.67
2023-04-19T17:10:24.864Z,98661.58
2023-04-19T17:12:55.606Z,98661.30
2023-04-19T17:15:23.987Z,98660.31
2023-04-19T17:17:52.864Z,98663.11
2023-04-19T17:20:21.369Z,98663.30
2023-04-19T17:22:49.793Z,98669.08
2023-04-19T17:25:17.714Z,98669.98
2023-04-19T17:27:45.892Z,98672.81
2023-04-19T17:30:14.193Z,98675.30
2023-04-19T17:32:42.881Z,98679.17
2023-04-19T17:35:11.062Z,98678.33
2023-04-19T17:37:39.503Z,98684.61
2023-04-19T17:40:08.275Z,98687.04
2023-04-19T17:42:38.000Z,98686.68
2023-04-19T17:45:11.020Z,98687.07
2023-04-19T17:47:39.925Z,98694.00
2023-04-19T17:50:12.320Z,98691.95
2023-04-19T17:52:41.570Z,98695.63
2023-04-19T17:55:09.862Z,98697.36
2023-04-19T17:57:38.234Z,98698.58
2023-04-19T18:00:07.960Z,98704.67
2023-04-19T18:02:40.971Z,98710.23
2023-04-19T18:05:09.574Z,98714.60
2023-04-19T18:07:37.789Z,98715.33
2023-04-19T18:10:06.974Z,98715.35
2023-04-19T18:12:36.700Z,98714.83
2023-04-19T18:15:06.362Z,98715.55
2023-04-19T18:17:35.855Z,98718.17
2023-04-19T18:20:07.567Z,98718.20
2023-04-19T18:22:36.523Z,98714.73
2023-04-19T18:25:04.998Z,98713.02
2023-04-19T18:27:33.125Z,98712.02
2023-04-19T18:30:05.334Z,98711.38
2023-04-19T18:32:34.090Z,98716.81
2023-04-19T18:35:05.398Z,98717.36
2023-04-19T18:37:33.638Z,98715.14
2023-04-19T18:40:02.381Z,98714.81
2023-04-19T18:42:30.743Z,98714.66
2023-04-19T18:45:04.504Z,98716.23
2023-04-19T18:47:32.956Z,98716.55
2023-04-19T18:50:05.918Z,98717.42
2023-04-19T18:52:36.390Z,98720.37
2023-04-19T18:55:06.247Z,98721.93
2023-04-19T18:57:35.358Z,98725.77
2023-04-19T19:00:09.614Z,98722.48
2023-04-19T19:02:40.423Z,98725.41
2023-04-19T19:05:09.862Z,98727.34
2023-04-19T19:07:39.603Z,98723.72
2023-04-19T19:10:19.359Z,98715.42
2023-04-19T19:12:50.160Z,98717.34
2023-04-19T19:15:18.775Z,98714.95
2023-04-19T19:17:49.788Z,98714.98
2023-04-19T19:20:19.599Z,98715.86
2023-04-19T19:25:57.123Z,98715.98
2023-04-19T19:28:25.698Z,98721.41
2023-04-19T19:30:53.878Z,98721.63
2023-04-19T19:33:22.692Z,98724.67
2023-04-19T19:35:50.938Z,98729.97
2023-04-19T19:38:19.057Z,98729.51
2023-04-19T19:41:24.763Z,98727.67
2023-04-19T19:43:35.487Z,98728.80
2023-04-19T19:46:03.806Z,98729.75
2023-04-19T19:48:37.115Z,98731.54
2023-04-19T19:51:36.462Z,98732.64
2023-04-19T19:53:56.589Z,98733.13
2023-04-19T19:56:25.406Z,98733.92
2023-04-19T19:58:53.393Z,98731.42
2023-04-19T20:01:22.521Z,98734.06
2023-04-19T20:03:51.473Z,98735.34
2023-04-19T20:07:07.785Z,98732.98
2023-04-19T20:09:08.361Z,98734.25
2023-04-19T20:11:38.897Z,98734.83
2023-04-19T20:14:07.087Z,98732.07
2023-04-19T20:16:35.746Z,98734.02
2023-04-19T20:19:09.745Z,98736.13
2023-04-19T20:21:39.076Z,98737.52
2023-04-19T20:24:07.969Z,98738.55
2023-04-19T20:26:35.997Z,98736.45
2023-04-19T20:29:04.049Z,98736.92
2023-04-19T20:31:32.469Z,98731.37
2023-04-19T20:34:00.964Z,98732.39
2023-04-19T20:36:31.899Z,98732.89
2023-04-19T20:39:01.917Z,98732.73
2023-04-19T20:41:30.137Z,98731.52
2023-04-19T20:43:59.904Z,98732.90
2023-04-19T20:46:28.411Z,98735.88
2023-04-19T20:48:56.566Z,98737.59
2023-04-19T20:51:24.779Z,98741.23
2023-04-19T20:53:52.783Z,98739.69
2023-04-19T20:56:21.655Z,98737.63
2023-04-19T20:58:49.883Z,98740.46
2023-04-19T21:01:18.499Z,98738.45
2023-04-19T21:03:47.049Z,98740.94
2023-04-19T21:06:15.580Z,98738.23
2023-04-19T21:08:43.540Z,98740.39
2023-04-19T21:11:11.823Z,98736.29
2023-04-19T21:13:39.936Z,98737.75
2023-04-19T21:16:08.038Z,98733.69
2023-04-19T21:18:36.193Z,98739.14
2023-04-19T21:21:04.362Z,98735.73
2023-04-19T21:23:32.747Z,98731.83
2023-04-19T21:26:04.222Z,98727.52
2023-04-19T21:28:34.878Z,98730.47
2023-04-19T21:31:02.932Z,98726.20
2023-04-19T21:33:31.340Z,98725.53
2023-04-19T21:35:59.638Z,98726.25
2023-04-19T21:38:27.810Z,98723.65
2023-04-19T21:40:56.099Z,98722.29
2023-04-19T21:43:24.181Z,98718.48
2023-04-19T21:45:52.368Z,98717.25
2023-04-19T21:48:21.017Z,98719.36
2023-04-19T21:50:49.075Z,98717.83
2023-04-19T21:53:17.489Z,98718.70
2023-04-19T21:55:48.903Z,98717.34
2023-04-19T21:58:18.969Z,98718.41
2023-04-19T22:00:47.874Z,98720.50
2023-04-19T22:03:16.088Z,98724.83
2023-04-19T22:05:46.163Z,98729.16
2023-04-19T22:08:14.243Z,98729.64
2023-04-19T22:10:43.019Z,98731.89
2023-04-19T22:13:11.253Z,98726.33
2023-04-19T22:15:39.603Z,98728.38
2023-04-19T22:18:08.371Z,98729.05
2023-04-19T22:20:36.806Z,98725.23
2023-04-19T22:23:05.079Z,98725.05
2023-04-19T22:25:33.357Z,98722.91
2023-04-19T22:28:01.993Z,98718.55
2023-04-19T22:30:30.530Z,98720.45
2023-04-19T22:32:58.673Z,98721.13
2023-04-19T22:35:26.901Z,98721.11
2023-04-19T22:37:54.975Z,98721.44
2023-04-19T22:40:23.174Z,98720.55
2023-04-19T22:42:51.366Z,98720.54
2023-04-19T22:45:19.667Z,98722.64
2023-04-19T22:47:48.306Z,98724.22
2023-04-19T22:50:16.499Z,98719.70
2023-04-19T22:52:46.220Z,98718.84
2023-04-19T22:55:14.297Z,98719.86
2023-04-19T22:57:43.132Z,98719.68
2023-04-19T23:00:12.104Z,98723.11
2023-04-19T23:02:40.911Z,98720.80
2023-04-19T23:05:09.510Z,98718.88
2023-04-19T23:07:40.034Z,98723.01
2023-04-19T23:10:10.376Z,98725.77
2023-04-19T23:12:39.370Z,98720.74
2023-04-19T23:15:09.777Z,98719.20
2023-04-19T23:17:39.430Z,98720.43
2023-04-19T23:20:11.369Z,98719.39
2023-04-19T23:22:39.794Z,98723.39
2023-04-19T23:25:08.931Z,98724.96
2023-04-19T23:27:37.117Z,98719.41
2023-04-19T23:30:07.394Z,98716.67
2023-04-19T23:32:36.027Z,98714.27
2023-04-19T23:35:04.734Z,98715.69
2023-04-19T23:37:32.906Z,98714.67
2023-04-19T23:40:01.179Z,98712.30
2023-04-19T23:42:29.245Z,98709.20
2023-04-19T23:44:57.654Z,98711.33
2023-04-19T23:47:26.082Z,98708.23
2023-04-19T23:49:54.290Z,98708.77
2023-04-19T23:52:22.911Z,98708.11
2023-04-19T23:54:51.279Z,98706.58
2023-04-19T23:57:19.665Z,98702.29
2023-04-19T23:59:47.784Z,98705.78
